Time;durP1;ratioP1;P1;durP2;ratioP2;P2;SDS_P1;SDS_P2;PMS_P1;PMS_P2;Temp;Humidity;BMP_temperature;BMP_pressure;BME280_temperature;BME280_humidity;BME280_pressure;Samples;Min_cycle;Max_cycle;Signal;HPM_P1;HPM_P2
2022/08/28 00:02:15;;;;;;;;;;;;;;;15.31;100.00;101843.97;6540926;22;19903;-82
2022/08/28 00:04:46;;;;;;;;;;;;;;;15.25;100.00;101839.19;6512936;22;19915;-82
2022/08/28 00:07:18;;;;;;;;;;;;;;;15.19;100.00;101845.16;6540959;22;19975;-83
2022/08/28 00:09:49;;;;;;;;;;;;;;;15.13;100.00;101852.00;6540592;22;19911;-82
2022/08/28 00:12:20;;;;;;;;;;;;;;;15.10;100.00;101849.59;6540754;22;19904;-82
2022/08/28 00:14:51;;;;;;;;;;;;;;;15.04;100.00;101852.84;6540505;22;19912;-82
2022/08/28 00:17:23;;;;;;;;;;;;;;;15.01;100.00;101853.19;6540377;22;19918;-82
2022/08/28 00:19:54;;;;;;;;;;;;;;;14.94;100.00;101852.91;6539750;22;19910;-82
2022/08/28 00:22:25;;;;;;;;;;;;;;;14.88;100.00;101851.66;6539665;22;20211;-82
2022/08/28 00:24:56;;;;;;;;;;;;;;;14.87;100.00;101849.94;6541184;22;19919;-82
2022/08/28 00:30:53;;;;;;;;;;;;;;;14.72;100.00;101841.50;6540247;22;19915;-82
2022/08/28 00:33:28;;;;;;;;;;;;;;;14.59;100.00;101856.25;6350898;23;19910;-81
2022/08/28 00:36:01;;;;;;;;;;;;;;;14.51;100.00;101860.44;6515190;22;19903;-82
2022/08/28 00:38:32;;;;;;;;;;;;;;;14.45;100.00;101858.34;6542549;22;19914;-82
2022/08/28 00:41:04;;;;;;;;;;;;;;;14.37;100.00;101852.84;6543161;22;20316;-81
2022/08/28 00:43:37;;;;;;;;;;;;;;;14.29;100.00;101855.41;6513318;22;19915;-81
2022/08/28 00:46:10;;;;;;;;;;;;;;;14.18;100.00;101859.06;6540169;22;20230;-81
2022/08/28 00:48:41;;;;;;;;;;;;;;;14.09;100.00;101854.53;6512600;22;19907;-82
2022/08/28 00:54:05;;;;;;;;;;;;;;;13.89;100.00;101854.53;6540061;22;19935;-81
2022/08/28 00:56:38;;;;;;;;;;;;;;;13.79;100.00;101857.19;6539753;22;19982;-81
2022/08/28 00:59:13;;;;;;;;;;;;;;;13.73;100.00;101860.44;6539882;22;19903;-82
2022/08/28 01:01:45;;;;;;;;;;;;;;;13.70;100.00;101863.41;6538701;22;20467;-82
2022/08/28 01:04:17;;;;;;;;;;;;;;;13.65;100.00;101862.13;6540564;22;19904;-82
2022/08/28 01:06:52;;;;;;;;;;;;;;;13.59;100.00;101871.56;6512446;22;19907;-81
2022/08/28 01:09:25;;;;;;;;;;;;;;;13.54;100.00;101869.28;6539690;22;19907;-82
2022/08/28 01:12:01;;;;;;;;;;;;;;;13.50;100.00;101867.00;6538928;22;19908;-82
2022/08/28 01:14:35;;;;;;;;;;;;;;;13.51;100.00;101871.38;6538878;22;19950;-82
2022/08/28 01:17:07;;;;;;;;;;;;;;;13.51;100.00;101876.75;6512484;22;19908;-81
2022/08/28 01:19:41;;;;;;;;;;;;;;;13.49;100.00;101876.88;6513681;22;20349;-82
2022/08/28 01:22:21;;;;;;;;;;;;;;;13.46;100.00;101870.94;6540074;22;19914;-81
2022/08/28 01:24:54;;;;;;;;;;;;;;;13.41;100.00;101865.97;6512459;22;19914;-82
2022/08/28 01:27:26;;;;;;;;;;;;;;;13.32;100.00;101870.31;6539098;22;19904;-82
2022/08/28 01:29:57;;;;;;;;;;;;;;;13.21;100.00;101865.88;6538003;22;19911;-82
2022/08/28 01:32:31;;;;;;;;;;;;;;;13.12;100.00;101869.38;6538879;22;19904;-82
2022/08/28 01:35:04;;;;;;;;;;;;;;;13.04;100.00;101870.06;6539471;22;19907;-82
2022/08/28 01:37:36;;;;;;;;;;;;;;;13.00;100.00;101876.66;6512644;22;19904;-82
2022/08/28 01:40:08;;;;;;;;;;;;;;;12.98;100.00;101881.28;6512729;22;20346;-81
2022/08/28 01:42:41;;;;;;;;;;;;;;;12.96;100.00;101877.06;6541577;22;19919;-82
2022/08/28 01:45:13;;;;;;;;;;;;;;;12.91;100.00;101880.13;6541084;22;20683;-82
2022/08/28 01:47:45;;;;;;;;;;;;;;;12.89;100.00;101884.78;6511580;22;20326;-82
2022/08/28 01:50:18;;;;;;;;;;;;;;;12.85;100.00;101883.34;6539029;22;19988;-82
2022/08/28 01:52:49;;;;;;;;;;;;;;;12.83;100.00;101885.28;6538645;22;19950;-82
2022/08/28 01:55:20;;;;;;;;;;;;;;;12.83;100.00;101880.81;6538945;22;19982;-82
2022/08/28 01:57:53;;;;;;;;;;;;;;;12.83;100.00;101882.59;6540206;22;19910;-82
2022/08/28 02:00:27;;;;;;;;;;;;;;;12.79;100.00;101890.06;6540044;22;19942;-82
2022/08/28 02:02:59;;;;;;;;;;;;;;;12.71;100.00;101886.34;6513607;22;19915;-82
2022/08/28 02:05:31;;;;;;;;;;;;;;;12.67;100.00;101893.78;6513007;22;19904;-81
2022/08/28 02:08:03;;;;;;;;;;;;;;;12.64;100.00;101894.91;6540183;22;20336;-82
2022/08/28 02:10:36;;;;;;;;;;;;;;;12.64;100.00;101889.56;6539820;22;19938;-82
2022/08/28 02:13:07;;;;;;;;;;;;;;;12.68;100.00;101888.31;6539509;22;19915;-82
2022/08/28 02:15:39;;;;;;;;;;;;;;;12.70;100.00;101893.53;6539757;22;20384;-82
2022/08/28 02:18:10;;;;;;;;;;;;;;;12.65;100.00;101896.59;6513379;22;19982;-82
2022/08/28 02:20:42;;;;;;;;;;;;;;;12.62;100.00;101904.03;6539147;22;19907;-82
2022/08/28 02:23:13;;;;;;;;;;;;;;;12.55;100.00;101901.03;6540710;22;19967;-82
2022/08/28 02:25:44;;;;;;;;;;;;;;;12.48;100.00;101895.34;6539562;22;19962;-82
2022/08/28 02:28:15;;;;;;;;;;;;;;;12.43;100.00;101902.03;6539928;22;19931;-81
2022/08/28 02:30:47;;;;;;;;;;;;;;;12.35;100.00;101900.03;6539113;22;20340;-82
2022/08/28 02:33:18;;;;;;;;;;;;;;;12.25;100.00;101899.09;6540200;22;20227;-82
2022/08/28 02:35:49;;;;;;;;;;;;;;;12.14;100.00;101900.00;6538945;22;19933;-81
2022/08/28 02:38:21;;;;;;;;;;;;;;;12.06;100.00;101905.09;6513776;22;20278;-81
2022/08/28 02:40:52;;;;;;;;;;;;;;;11.96;100.00;101905.03;6538995;22;19907;-82
2022/08/28 02:43:23;;;;;;;;;;;;;;;11.90;100.00;101901.03;6540240;22;19910;-82
2022/08/28 02:45:55;;;;;;;;;;;;;;;11.82;100.00;101905.28;6512664;22;19910;-81
2022/08/28 02:48:27;;;;;;;;;;;;;;;11.74;100.00;101900.53;6540042;22;19916;-82
2022/08/28 02:51:00;;;;;;;;;;;;;;;11.65;100.00;101903.97;6538855;22;19997;-81
2022/08/28 02:53:31;;;;;;;;;;;;;;;11.59;100.00;101899.09;6513633;22;19938;-82
2022/08/28 02:56:03;;;;;;;;;;;;;;;11.53;100.00;101898.66;6512722;22;20256;-81
2022/08/28 02:58:35;;;;;;;;;;;;;;;11.47;100.00;101903.63;6539696;22;19907;-81
2022/08/28 03:01:08;;;;;;;;;;;;;;;11.42;100.00;101908.47;6539462;22;19934;-82
2022/08/28 03:03:39;;;;;;;;;;;;;;;11.34;100.00;101904.59;6540258;22;19942;-82
2022/08/28 03:06:11;;;;;;;;;;;;;;;11.27;100.00;101908.72;6512705;22;19927;-82
2022/08/28 03:08:42;;;;;;;;;;;;;;;11.20;100.00;101904.81;6539402;22;19987;-82
2022/08/28 03:11:14;;;;;;;;;;;;;;;11.14;100.00;101907.97;6539453;22;19947;-82
2022/08/28 03:13:45;;;;;;;;;;;;;;;11.06;100.00;101905.94;6539910;22;20337;-82
2022/08/28 03:16:16;;;;;;;;;;;;;;;10.98;100.00;101900.31;6540302;22;19911;-81
2022/08/28 03:18:47;;;;;;;;;;;;;;;10.97;100.00;101912.81;6539675;22;20010;-82
2022/08/28 03:21:19;;;;;;;;;;;;;;;10.93;100.00;101907.84;6511944;22;19907;-80
2022/08/28 03:23:50;;;;;;;;;;;;;;;10.85;100.00;101913.78;6512697;22;19914;-82
2022/08/28 03:26:22;;;;;;;;;;;;;;;10.78;100.00;101913.38;6540105;22;19942;-82
2022/08/28 03:28:55;;;;;;;;;;;;;;;10.75;100.00;101918.13;6539598;22;19916;-82
2022/08/28 03:31:27;;;;;;;;;;;;;;;10.73;100.00;101922.72;6539165;22;19939;-81
2022/08/28 03:33:58;;;;;;;;;;;;;;;10.71;100.00;101922.84;6541365;22;19904;-81
2022/08/28 03:36:30;;;;;;;;;;;;;;;10.72;100.00;101923.69;6540560;22;19938;-81
2022/08/28 03:39:03;;;;;;;;;;;;;;;10.68;100.00;101924.88;6539318;22;19958;-82
2022/08/28 03:41:35;;;;;;;;;;;;;;;10.65;100.00;101925.13;6539079;22;19904;-82
2022/08/28 03:44:06;;;;;;;;;;;;;;;10.59;100.00;101923.78;6539395;22;19958;-82
2022/08/28 03:46:37;;;;;;;;;;;;;;;10.57;100.00;101925.69;6539178;22;19934;-82
2022/08/28 03:49:09;;;;;;;;;;;;;;;10.57;100.00;101933.69;6539414;22;19907;-82
2022/08/28 03:51:40;;;;;;;;;;;;;;;10.53;100.00;101934.88;6539082;22;20322;-82
2022/08/28 03:54:11;;;;;;;;;;;;;;;10.48;100.00;101929.03;6512291;22;19918;-82
2022/08/28 03:56:42;;;;;;;;;;;;;;;10.47;100.00;101933.53;6538743;22;19904;-82
2022/08/28 03:59:14;;;;;;;;;;;;;;;10.51;100.00;101927.00;6539484;22;19904;-82
2022/08/28 04:01:45;;;;;;;;;;;;;;;10.49;100.00;101928.09;6539050;22;19907;-82
2022/08/28 04:04:16;;;;;;;;;;;;;;;10.46;100.00;101931.81;6538843;22;19990;-82
2022/08/28 04:06:48;;;;;;;;;;;;;;;10.44;100.00;101938.25;6512647;22;20348;-82
2022/08/28 04:09:19;;;;;;;;;;;;;;;10.42;100.00;101937.53;6539271;22;19908;-81
2022/08/28 04:11:52;;;;;;;;;;;;;;;10.40;100.00;101935.81;6539483;22;19904;-81
2022/08/28 04:14:23;;;;;;;;;;;;;;;10.38;100.00;101939.56;6540008;22;19966;-82
2022/08/28 04:16:54;;;;;;;;;;;;;;;10.37;100.00;101933.38;6540159;22;19908;-82
2022/08/28 04:19:25;;;;;;;;;;;;;;;10.33;100.00;101929.22;6510903;22;19959;-82
2022/08/28 04:21:57;;;;;;;;;;;;;;;10.30;100.00;101931.25;6539793;22;20009;-81
2022/08/28 04:24:28;;;;;;;;;;;;;;;10.26;100.00;101924.44;6539793;22;20262;-81
2022/08/28 04:26:59;;;;;;;;;;;;;;;10.20;100.00;101933.72;6539706;22;19903;-82
2022/08/28 04:29:31;;;;;;;;;;;;;;;10.18;100.00;101941.84;6539770;22;19914;-82
2022/08/28 04:32:02;;;;;;;;;;;;;;;10.20;100.00;101942.59;6540098;22;19907;-82
2022/08/28 04:34:35;;;;;;;;;;;;;;;10.20;100.00;101942.59;6511404;22;19910;-81
2022/08/28 04:37:06;;;;;;;;;;;;;;;10.22;100.00;101939.84;6540470;22;19903;-81
2022/08/28 04:39:38;;;;;;;;;;;;;;;10.24;100.00;101951.22;6541273;22;19911;-81
2022/08/28 04:42:09;;;;;;;;;;;;;;;10.28;100.00;101952.69;6514286;22;19907;-81
2022/08/28 04:44:40;;;;;;;;;;;;;;;10.28;100.00;101954.50;6540163;22;20282;-81
2022/08/28 04:47:11;;;;;;;;;;;;;;;10.27;100.00;101952.81;6512935;22;19903;-81
2022/08/28 04:49:43;;;;;;;;;;;;;;;10.25;100.00;101955.56;6512431;22;19911;-81
2022/08/28 04:52:14;;;;;;;;;;;;;;;10.23;100.00;101947.69;6506438;22;20257;-82
2022/08/28 04:54:45;;;;;;;;;;;;;;;10.29;100.00;101950.88;6509223;22;19916;-81
2022/08/28 04:57:17;;;;;;;;;;;;;;;10.34;100.00;101954.06;6505754;22;19908;-82
2022/08/28 04:59:48;;;;;;;;;;;;;;;10.30;100.00;101955.25;6506804;22;19923;-81
2022/08/28 05:02:19;;;;;;;;;;;;;;;10.26;100.00;101959.97;6507888;22;19954;-81
2022/08/28 05:04:50;;;;;;;;;;;;;;;10.19;100.00;101956.88;6505709;22;19903;-81
2022/08/28 05:07:21;;;;;;;;;;;;;;;10.17;100.00;101957.97;6507106;22;20275;-81
2022/08/28 05:09:53;;;;;;;;;;;;;;;10.20;100.00;101963.94;6507346;22;19958;-81
2022/08/28 05:12:24;;;;;;;;;;;;;;;10.27;100.00;101974.97;6507770;22;19915;-82
2022/08/28 05:14:55;;;;;;;;;;;;;;;10.29;100.00;101978.41;6507370;22;19930;-81
2022/08/28 05:17:27;;;;;;;;;;;;;;;10.28;100.00;101981.19;6507432;22;19908;-81
2022/08/28 05:19:58;;;;;;;;;;;;;;;10.29;100.00;101974.88;6507559;22;19911;-82
2022/08/28 05:22:30;;;;;;;;;;;;;;;10.30;100.00;101972.09;6505660;22;20146;-82
2022/08/28 05:25:01;;;;;;;;;;;;;;;10.31;100.00;101983.59;6506168;22;19908;-82
2022/08/28 05:27:34;;;;;;;;;;;;;;;10.36;100.00;101981.47;6519505;22;20398;-81
2022/08/28 05:30:05;;;;;;;;;;;;;;;10.34;100.00;101986.94;6506166;22;19908;-81
2022/08/28 05:32:37;;;;;;;;;;;;;;;10.32;100.00;101988.84;6506747;22;19919;-82
2022/08/28 05:35:08;;;;;;;;;;;;;;;10.35;100.00;101985.13;6506061;22;20246;-82
2022/08/28 05:37:39;;;;;;;;;;;;;;;10.42;100.00;101993.53;6505596;22;20501;-82
2022/08/28 05:40:10;;;;;;;;;;;;;;;10.46;100.00;101993.19;6505138;22;19914;-82
2022/08/28 05:42:43;;;;;;;;;;;;;;;10.51;100.00;101991.03;6507467;22;19935;-82
2022/08/28 05:45:14;;;;;;;;;;;;;;;10.62;100.00;101992.88;6505561;22;20057;-82
2022/08/28 05:47:45;;;;;;;;;;;;;;;10.73;100.00;101994.78;6507369;22;20393;-82
2022/08/28 05:50:17;;;;;;;;;;;;;;;10.94;100.00;101995.81;6506902;22;19924;-82
2022/08/28 05:52:48;;;;;;;;;;;;;;;11.19;100.00;101998.44;6524138;22;20359;-82
2022/08/28 05:55:20;;;;;;;;;;;;;;;11.43;100.00;101999.19;6511337;22;20261;-82
2022/08/28 05:57:51;;;;;;;;;;;;;;;11.74;100.00;102002.09;6512358;22;19918;-82
2022/08/28 06:00:22;;;;;;;;;;;;;;;12.02;100.00;102005.28;6540186;22;19966;-82
2022/08/28 06:02:54;;;;;;;;;;;;;;;12.29;100.00;101999.53;6540403;22;20006;-82
2022/08/28 06:05:25;;;;;;;;;;;;;;;12.56;100.00;102007.09;6539608;22;19910;-82
2022/08/28 06:07:57;;;;;;;;;;;;;;;12.81;100.00;102008.56;6512774;22;19954;-82
2022/08/28 06:10:29;;;;;;;;;;;;;;;13.13;100.00;102014.88;6540301;22;20322;-82
2022/08/28 06:13:01;;;;;;;;;;;;;;;13.47;100.00;102015.53;6513497;22;19914;-82
2022/08/28 06:15:32;;;;;;;;;;;;;;;13.84;100.00;102009.66;6517903;22;19908;-81
2022/08/28 06:18:03;;;;;;;;;;;;;;;14.18;100.00;102012.00;6541870;22;20273;-82
2022/08/28 06:20:36;;;;;;;;;;;;;;;14.51;100.00;102010.78;6538405;22;19907;-82
2022/08/28 06:23:08;;;;;;;;;;;;;;;14.81;100.00;102013.53;6539669;22;19992;-82
2022/08/28 06:25:40;;;;;;;;;;;;;;;15.15;100.00;102013.06;6509966;22;19926;-82
2022/08/28 06:28:12;;;;;;;;;;;;;;;15.51;100.00;102011.41;6511768;22;19908;-82
2022/08/28 06:30:44;;;;;;;;;;;;;;;15.78;100.00;102012.50;6538633;22;19910;-82
2022/08/28 06:33:15;;;;;;;;;;;;;;;16.06;100.00;102011.50;6539617;22;19908;-82
2022/08/28 06:35:48;;;;;;;;;;;;;;;16.34;100.00;102013.31;6510870;22;20264;-82
2022/08/28 06:38:21;;;;;;;;;;;;;;;16.61;100.00;102010.56;6511360;22;19945;-82
2022/08/28 06:40:54;;;;;;;;;;;;;;;16.89;100.00;102021.28;6538332;22;19907;-82
2022/08/28 06:43:26;;;;;;;;;;;;;;;17.24;100.00;102022.22;6513421;22;19907;-82
2022/08/28 06:45:58;;;;;;;;;;;;;;;17.56;100.00;102018.88;6539279;22;19916;-82
2022/08/28 06:48:30;;;;;;;;;;;;;;;17.89;100.00;102021.78;6539875;22;20326;-82
2022/08/28 06:51:03;;;;;;;;;;;;;;;18.23;100.00;102020.03;6540835;22;19972;-82
2022/08/28 06:53:35;;;;;;;;;;;;;;;18.57;100.00;102017.25;6513176;22;19923;-82
2022/08/28 06:56:10;;;;;;;;;;;;;;;18.87;100.00;102025.75;6540337;22;19907;-83
2022/08/28 06:58:41;;;;;;;;;;;;;;;19.15;100.00;102020.84;6512454;22;19903;-82
2022/08/28 07:01:15;;;;;;;;;;;;;;;19.40;100.00;102024.34;6513279;22;20242;-83
2022/08/28 07:03:48;;;;;;;;;;;;;;;19.71;100.00;102025.47;6513284;22;20200;-83
2022/08/28 07:06:21;;;;;;;;;;;;;;;20.03;100.00;102016.41;6540105;22;20353;-83
2022/08/28 07:08:52;;;;;;;;;;;;;;;20.37;100.00;102026.03;6539445;22;19994;-83
2022/08/28 07:11:25;;;;;;;;;;;;;;;20.72;100.00;102016.53;6512887;22;20366;-82
2022/08/28 07:13:57;;;;;;;;;;;;;;;21.19;100.00;102014.56;6539545;22;20268;-83
2022/08/28 07:16:32;;;;;;;;;;;;;;;21.62;100.00;102016.72;6513529;22;19907;-83
2022/08/28 07:19:05;;;;;;;;;;;;;;;21.95;100.00;102011.75;6539860;22;19903;-83
2022/08/28 07:21:37;;;;;;;;;;;;;;;22.31;100.00;102018.25;6512578;22;19903;-83
2022/08/28 07:24:10;;;;;;;;;;;;;;;22.55;100.00;102020.59;6512379;22;19918;-83
2022/08/28 07:26:42;;;;;;;;;;;;;;;22.81;100.00;102017.28;6513045;22;19919;-83
2022/08/28 07:29:14;;;;;;;;;;;;;;;23.15;100.00;102023.88;6539697;22;19911;-83
2022/08/28 07:31:47;;;;;;;;;;;;;;;23.48;100.00;102026.00;6538974;22;19910;-83
2022/08/28 07:34:19;;;;;;;;;;;;;;;23.80;100.00;102026.38;6512329;22;19993;-83
2022/08/28 07:36:51;;;;;;;;;;;;;;;23.87;100.00;102031.91;6538571;22;19910;-82
2022/08/28 07:39:22;;;;;;;;;;;;;;;23.95;100.00;102035.28;6540989;22;19907;-83
2022/08/28 07:41:53;;;;;;;;;;;;;;;24.27;100.00;102034.78;6539722;22;19911;-83
2022/08/28 07:47:16;;;;;;;;;;;;;;;24.93;100.00;102036.84;6542164;22;19911;-82
2022/08/28 07:49:47;;;;;;;;;;;;;;;25.08;100.00;102037.44;6515563;22;20289;-83
2022/08/28 07:52:18;;;;;;;;;;;;;;;25.32;100.00;102040.63;6512524;22;19922;-83
2022/08/28 07:54:49;;;;;;;;;;;;;;;25.55;100.00;102039.31;6540313;22;19990;-82
2022/08/28 07:57:21;;;;;;;;;;;;;;;25.89;100.00;102040.06;6511649;22;19903;-83
2022/08/28 07:59:52;;;;;;;;;;;;;;;26.32;100.00;102036.75;6538708;22;19915;-83
2022/08/28 08:02:23;;;;;;;;;;;;;;;26.82;100.00;102042.31;6539718;22;20257;-83
2022/08/28 08:04:55;;;;;;;;;;;;;;;26.88;100.00;102037.88;6513367;22;19933;-83
2022/08/28 08:07:27;;;;;;;;;;;;;;;26.99;100.00;102048.09;6540592;22;20105;-83
2022/08/28 08:09:58;;;;;;;;;;;;;;;27.25;100.00;102043.47;6540011;22;19914;-83
2022/08/28 08:12:32;;;;;;;;;;;;;;;27.13;100.00;102043.34;6512365;22;20312;-82
2022/08/28 08:15:03;;;;;;;;;;;;;;;27.06;94.42;102046.13;6539838;22;19907;-83
2022/08/28 08:17:34;;;;;;;;;;;;;;;27.72;99.59;102043.84;6539330;22;19907;-82
2022/08/28 08:20:06;;;;;;;;;;;;;;;28.23;99.69;102053.56;6538830;22;19914;-82
2022/08/28 08:22:37;;;;;;;;;;;;;;;28.58;87.56;102054.81;6539326;22;19914;-82
2022/08/28 08:25:08;;;;;;;;;;;;;;;29.09;75.93;102056.09;6539387;22;19911;-82
2022/08/28 08:27:40;;;;;;;;;;;;;;;29.60;74.31;102059.22;6539856;22;19927;-83
2022/08/28 08:30:11;;;;;;;;;;;;;;;29.73;65.64;102055.38;6540157;22;19908;-83
2022/08/28 08:32:42;;;;;;;;;;;;;;;30.46;70.60;102064.06;6540065;22;19907;-83
2022/08/28 08:35:13;;;;;;;;;;;;;;;31.44;66.90;102058.25;6540713;22;19907;-82
2022/08/28 08:37:45;;;;;;;;;;;;;;;31.72;56.55;102062.81;6539102;22;19907;-82
2022/08/28 08:40:18;;;;;;;;;;;;;;;31.64;57.27;102058.56;6538632;22;20252;-82
2022/08/28 08:42:55;;;;;;;;;;;;;;;30.97;61.04;102061.41;6511490;22;19978;-82
2022/08/28 08:45:29;;;;;;;;;;;;;;;30.27;65.99;102060.63;6538368;22;19974;-83
2022/08/28 08:48:01;;;;;;;;;;;;;;;29.62;66.17;102050.75;6538835;22;19918;-82
2022/08/28 08:50:34;;;;;;;;;;;;;;;30.76;65.42;102063.75;6537925;22;20238;-82
2022/08/28 08:53:05;;;;;;;;;;;;;;;31.85;57.62;102064.34;6539091;22;19920;-82
2022/08/28 08:55:44;;;;;;;;;;;;;;;31.85;55.18;102047.78;6538154;22;19911;-83
2022/08/28 08:58:22;;;;;;;;;;;;;;;30.38;59.65;102050.69;6538586;22;20322;-82
2022/08/28 09:01:08;;;;;;;;;;;;;;;28.90;61.64;102047.13;6538546;22;19903;-82
2022/08/28 09:03:53;;;;;;;;;;;;;;;27.79;64.53;102047.34;6537725;22;19908;-82
2022/08/28 09:06:28;;;;;;;;;;;;;;;28.38;69.47;102055.06;6538059;22;19903;-81
2022/08/28 09:09:01;;;;;;;;;;;;;;;28.45;72.74;102045.69;6539995;22;19954;-82
2022/08/28 09:11:53;;;;;;;;;;;;;;;29.25;70.88;102046.34;6539746;22;19918;-82
2022/08/28 09:14:36;;;;;;;;;;;;;;;30.90;58.77;102051.31;6540286;22;19903;-82
2022/08/28 09:17:09;;;;;;;;;;;;;;;31.82;50.73;102049.16;6539620;22;19907;-82
2022/08/28 09:19:40;;;;;;;;;;;;;;;32.33;48.15;102050.84;6512904;22;20344;-82
2022/08/28 09:22:12;;;;;;;;;;;;;;;32.11;49.26;102054.47;6512429;22;20006;-82
2022/08/28 09:24:43;;;;;;;;;;;;;;;31.58;47.75;102054.06;6512759;22;20242;-82
2022/08/28 09:27:23;;;;;;;;;;;;;;;30.15;51.10;102053.28;6539791;22;19903;-81
2022/08/28 09:30:05;;;;;;;;;;;;;;;28.73;54.92;102055.19;6512696;22;20235;-81
2022/08/28 09:32:40;;;;;;;;;;;;;;;28.03;63.19;102053.84;6512296;22;19908;-81
2022/08/28 09:35:11;;;;;;;;;;;;;;;27.58;63.75;102051.38;6539647;22;19911;-81
2022/08/28 09:37:43;;;;;;;;;;;;;;;27.98;78.21;102041.88;6512713;22;19907;-81
2022/08/28 09:40:16;;;;;;;;;;;;;;;29.24;60.19;102047.41;6512432;22;19903;-81
2022/08/28 09:46:05;;;;;;;;;;;;;;;32.48;46.90;102053.75;6539753;22;19978;-82
2022/08/28 09:48:40;;;;;;;;;;;;;;;32.86;48.23;102051.94;6539344;22;19912;-82
2022/08/28 09:51:11;;;;;;;;;;;;;;;32.59;43.49;102051.94;6539939;22;19945;-82
2022/08/28 09:53:42;;;;;;;;;;;;;;;32.40;43.87;102049.56;6539418;22;19916;-82
2022/08/28 09:56:19;;;;;;;;;;;;;;;32.75;44.82;102058.44;6539121;22;20326;-82
2022/08/28 09:58:53;;;;;;;;;;;;;;;33.88;45.00;102040.69;6539818;22;19942;-82
2022/08/28 10:01:39;;;;;;;;;;;;;;;34.51;36.14;102047.25;6513237;22;19904;-82
2022/08/28 10:04:30;;;;;;;;;;;;;;;35.22;35.56;102046.41;6539360;22;19950;-82
2022/08/28 10:07:17;;;;;;;;;;;;;;;36.40;34.36;102053.41;6512422;22;19918;-82
2022/08/28 10:09:48;;;;;;;;;;;;;;;37.99;34.33;102060.19;6539474;22;19913;-83
2022/08/28 10:12:28;;;;;;;;;;;;;;;39.27;31.95;102055.38;6539706;22;20321;-82
2022/08/28 10:15:05;;;;;;;;;;;;;;;39.85;28.04;102055.88;6511824;22;19911;-82
2022/08/28 10:17:57;;;;;;;;;;;;;;;37.37;33.55;102052.59;6512877;22;20663;-82
2022/08/28 10:20:34;;;;;;;;;;;;;;;34.71;33.94;102054.75;6539773;22;19907;-82
2022/08/28 10:23:10;;;;;;;;;;;;;;;32.67;37.88;102051.50;6540557;22;19990;-82
2022/08/28 10:25:54;;;;;;;;;;;;;;;31.23;45.57;102046.09;6512040;22;19911;-82
2022/08/28 10:28:34;;;;;;;;;;;;;;;30.10;45.62;102044.91;6540659;22;20278;-82
2022/08/28 10:31:16;;;;;;;;;;;;;;;29.82;53.49;102040.19;6539655;22;20321;-84
2022/08/28 10:34:05;;;;;;;;;;;;;;;32.31;44.95;102042.84;6539319;22;20338;-78
2022/08/28 10:36:37;;;;;;;;;;;;;;;34.93;41.20;102040.63;6540279;22;20353;-78
2022/08/28 10:39:08;;;;;;;;;;;;;;;36.75;33.33;102046.81;6533762;22;19903;-79
2022/08/28 10:41:43;;;;;;;;;;;;;;;38.96;32.70;102039.19;6537908;22;20551;-78
2022/08/28 10:44:18;;;;;;;;;;;;;;;40.94;27.32;102047.44;6540199;22;20406;-78
2022/08/28 10:46:52;;;;;;;;;;;;;;;41.74;25.79;102043.81;6540352;22;19909;-78
2022/08/28 10:49:38;;;;;;;;;;;;;;;42.23;27.79;102050.13;6511672;22;19950;-78
2022/08/28 10:52:22;;;;;;;;;;;;;;;42.32;25.64;102044.50;6512723;22;19942;-79
2022/08/28 10:55:17;;;;;;;;;;;;;;;42.27;28.04;102051.13;6539632;22;19954;-79
2022/08/28 10:57:55;;;;;;;;;;;;;;;39.16;28.41;102039.97;6539752;22;19911;-79
2022/08/28 11:00:27;;;;;;;;;;;;;;;36.60;28.46;102039.38;6540033;22;19939;-79
2022/08/28 11:03:05;;;;;;;;;;;;;;;34.02;35.41;102035.47;6541476;22;20204;-79
2022/08/28 11:05:41;;;;;;;;;;;;;;;32.71;35.21;102044.34;6540260;22;19912;-79
2022/08/28 11:08:21;;;;;;;;;;;;;;;31.55;44.38;102038.03;6539754;22;19939;-79
2022/08/28 11:10:54;;;;;;;;;;;;;;;32.80;42.88;102041.91;6539341;22;19929;-79
2022/08/28 11:13:40;;;;;;;;;;;;;;;33.00;40.39;102040.44;6540552;22;19904;-78
2022/08/28 11:16:17;;;;;;;;;;;;;;;35.67;34.83;102036.28;6539116;22;20022;-78
2022/08/28 11:19:08;;;;;;;;;;;;;;;38.32;33.79;102032.44;6539678;22;19939;-78
2022/08/28 11:21:42;;;;;;;;;;;;;;;40.25;27.51;102028.16;6540593;22;19954;-79
2022/08/28 11:24:22;;;;;;;;;;;;;;;41.40;25.63;102042.56;6512949;22;19923;-79
2022/08/28 11:27:04;;;;;;;;;;;;;;;42.16;23.46;102038.59;6540150;22;19904;-79
2022/08/28 11:29:54;;;;;;;;;;;;;;;41.79;24.02;102040.03;6540386;22;19998;-79
2022/08/28 11:32:34;;;;;;;;;;;;;;;41.61;26.21;102039.16;6542503;22;19934;-78
2022/08/28 11:35:05;;;;;;;;;;;;;;;42.55;22.61;102038.75;6546138;22;19930;-76
2022/08/28 11:37:44;;;;;;;;;;;;;;;43.99;22.63;102034.28;6542443;22;19907;-79
2022/08/28 11:40:20;;;;;;;;;;;;;;;42.91;21.58;102034.69;6512731;22;19907;-79
2022/08/28 11:42:51;;;;;;;;;;;;;;;39.17;26.56;102038.00;6539453;22;19918;-79
2022/08/28 11:45:44;;;;;;;;;;;;;;;36.04;28.99;102037.78;6539363;22;19908;-79
2022/08/28 11:48:21;;;;;;;;;;;;;;;37.82;27.79;102030.91;6448399;22;20022;-79
2022/08/28 11:51:07;;;;;;;;;;;;;;;39.86;25.34;102029.63;6512915;22;19950;-78
2022/08/28 11:53:50;;;;;;;;;;;;;;;39.06;25.29;102035.44;6539504;22;19912;-76
2022/08/28 11:56:34;;;;;;;;;;;;;;;36.99;27.43;102034.91;6539791;22;19995;-76
2022/08/28 11:59:16;;;;;;;;;;;;;;;35.83;28.36;102031.53;6540527;22;19904;-77
2022/08/28 12:01:48;;;;;;;;;;;;;;;36.63;30.26;102033.25;6540614;22;19907;-77
2022/08/28 12:04:20;;;;;;;;;;;;;;;39.50;28.07;102027.59;6513945;22;19910;-77
2022/08/28 12:07:10;;;;;;;;;;;;;;;41.17;23.17;102031.41;6513641;22;19911;-78
2022/08/28 12:09:41;;;;;;;;;;;;;;;38.92;24.29;102024.22;6513457;22;19947;-77
2022/08/28 12:12:21;;;;;;;;;;;;;;;36.48;29.30;102022.25;6540525;22;20424;-77
2022/08/28 12:14:57;;;;;;;;;;;;;;;34.88;31.51;102022.06;6538344;22;19953;-77
2022/08/28 12:17:39;;;;;;;;;;;;;;;36.83;28.41;102026.69;6539994;22;20314;-77
2022/08/28 12:20:22;;;;;;;;;;;;;;;37.60;26.10;102020.31;6538407;22;19903;-78
2022/08/28 12:22:55;;;;;;;;;;;;;;;35.47;27.04;102020.56;6538158;22;19904;-77
2022/08/28 12:25:38;;;;;;;;;;;;;;;33.29;30.19;102018.81;6540198;22;19911;-77
2022/08/28 12:28:18;;;;;;;;;;;;;;;31.74;33.36;102015.69;6512200;22;19955;-78
2022/08/28 12:30:58;;;;;;;;;;;;;;;31.36;43.81;102020.09;6539207;22;19907;-77
2022/08/28 12:33:35;;;;;;;;;;;;;;;33.80;32.17;102016.34;6538043;22;19904;-77
2022/08/28 12:36:12;;;;;;;;;;;;;;;36.33;32.87;102017.66;6539284;22;19938;-77
2022/08/28 12:38:48;;;;;;;;;;;;;;;38.30;26.96;102012.44;6511874;22;20330;-78
2022/08/28 12:41:20;;;;;;;;;;;;;;;40.31;25.03;102018.53;6510608;22;19908;-78
2022/08/28 12:43:53;;;;;;;;;;;;;;;41.52;23.78;102019.53;6539895;22;19908;-78
2022/08/28 12:46:24;;;;;;;;;;;;;;;42.81;22.69;102005.00;6539153;22;19904;-78
2022/08/28 12:48:58;;;;;;;;;;;;;;;43.16;21.35;102002.91;6540507;22;20249;-78
2022/08/28 12:51:31;;;;;;;;;;;;;;;43.66;20.68;102008.91;6539250;22;20234;-78
2022/08/28 12:54:04;;;;;;;;;;;;;;;44.59;21.44;102004.00;6540480;22;19953;-78
2022/08/28 12:56:36;;;;;;;;;;;;;;;44.93;19.44;102010.41;6540401;22;19911;-78
2022/08/28 12:59:34;;;;;;;;;;;;;;;44.67;17.91;102003.06;6538202;22;19907;-78
2022/08/28 13:02:08;;;;;;;;;;;;;;;41.85;23.20;102008.75;6500475;22;19952;-77
2022/08/28 13:04:44;;;;;;;;;;;;;;;41.08;22.73;102007.31;6540620;22;20368;-77
2022/08/28 13:07:17;;;;;;;;;;;;;;;40.29;22.84;101994.81;6540989;22;19903;-78
2022/08/28 13:09:53;;;;;;;;;;;;;;;41.34;24.51;101999.91;6541533;22;19962;-77
2022/08/28 13:12:38;;;;;;;;;;;;;;;42.63;21.59;101993.03;6541883;22;19907;-77
2022/08/28 13:15:10;;;;;;;;;;;;;;;43.58;18.17;102000.19;6514167;22;19912;-77
2022/08/28 13:17:49;;;;;;;;;;;;;;;43.71;19.15;101986.22;6541708;22;19903;-77